Time;durP1;ratioP1;P1;durP2;ratioP2;P2;SDS_P1;SDS_P2;PMS_P1;PMS_P2;Temp;Humidity;BMP_temperature;BMP_pressure;BME280_temperature;BME280_humidity;BME280_pressure;Samples;Min_cycle;Max_cycle;Signal;HPM_P1;HPM_P2
2022/07/10 00:00:00;;;;;;;;;;;;;;;14.70;63.57;102704.97;5075721;28;20316;-57
2022/07/10 00:02:25;;;;;;;;;;;;;;;14.68;63.36;102704.28;5049848;28;20019;-58
2022/07/10 00:04:50;;;;;;;;;;;;;;;14.66;63.78;102701.75;5056751;28;19932;-57
2022/07/10 00:07:15;;;;;;;;;;;;;;;14.63;63.55;102702.06;5051330;28;19963;-57
2022/07/10 00:09:40;;;;;;;;;;;;;;;14.64;63.67;102698.41;5046416;28;19936;-57
2022/07/10 00:12:06;;;;;;;;;;;;;;;14.59;63.69;102714.00;5053171;28;19980;-57
2022/07/10 00:14:31;;;;;;;;;;;;;;;14.55;64.01;102709.91;5049848;28;19929;-58
2022/07/10 00:16:56;;;;;;;;;;;;;;;14.47;64.31;102716.00;5058837;28;19928;-57
2022/07/10 00:19:22;;;;;;;;;;;;;;;14.40;64.25;102712.16;5062250;28;19924;-58
2022/07/10 00:21:47;;;;;;;;;;;;;;;14.39;64.17;102711.34;5061227;28;19924;-58
2022/07/10 00:24:12;;;;;;;;;;;;;;;14.36;64.35;102700.94;5058173;28;19925;-58
2022/07/10 00:26:37;;;;;;;;;;;;;;;14.33;64.36;102711.91;5056934;28;19968;-57
2022/07/10 00:29:03;;;;;;;;;;;;;;;14.29;64.65;102710.50;5073236;28;20015;-58
2022/07/10 00:31:28;;;;;;;;;;;;;;;14.21;64.96;102708.53;5066096;28;19936;-58
2022/07/10 00:33:53;;;;;;;;;;;;;;;14.18;64.92;102702.63;5063364;28;20025;-57
2022/07/10 00:36:18;;;;;;;;;;;;;;;14.13;64.84;102701.22;5051441;28;19929;-58
2022/07/10 00:38:43;;;;;;;;;;;;;;;14.11;65.00;102703.19;5063922;28;19950;-59
2022/07/10 00:41:09;;;;;;;;;;;;;;;14.09;65.15;102701.63;5060211;28;19928;-58
2022/07/10 00:43:53;;;;;;;;;;;;;;;14.07;65.17;102699.09;5059598;28;20307;-59
2022/07/10 00:46:20;;;;;;;;;;;;;;;14.05;65.10;102689.56;5063442;28;19943;-57
2022/07/10 00:48:45;;;;;;;;;;;;;;;14.05;64.99;102693.06;5055478;28;19924;-58
2022/07/10 00:51:10;;;;;;;;;;;;;;;14.06;65.16;102684.09;5051028;28;19928;-58
2022/07/10 00:53:36;;;;;;;;;;;;;;;14.05;65.36;102685.06;5060045;28;20522;-58
2022/07/10 00:56:01;;;;;;;;;;;;;;;14.04;65.30;102686.06;5056990;28;19929;-58
2022/07/10 00:58:26;;;;;;;;;;;;;;;14.03;65.60;102688.84;5063818;28;19932;-58
2022/07/10 01:00:51;;;;;;;;;;;;;;;13.99;65.47;102688.28;5058872;28;19924;-58
2022/07/10 01:03:17;;;;;;;;;;;;;;;13.96;65.51;102677.91;5061014;28;19925;-58
2022/07/10 01:05:42;;;;;;;;;;;;;;;13.97;65.61;102680.41;5061043;28;19924;-58
2022/07/10 01:08:07;;;;;;;;;;;;;;;13.95;65.67;102676.22;5060644;28;19928;-57
2022/07/10 01:10:32;;;;;;;;;;;;;;;13.97;65.91;102679.59;5061838;28;19939;-58
2022/07/10 01:12:57;;;;;;;;;;;;;;;13.95;65.89;102677.06;5061814;28;20003;-57
2022/07/10 01:15:23;;;;;;;;;;;;;;;13.96;65.91;102661.91;5062210;28;19931;-58
2022/07/10 01:17:49;;;;;;;;;;;;;;;13.96;65.96;102667.25;5064936;28;20371;-57
2022/07/10 01:20:14;;;;;;;;;;;;;;;13.92;66.38;102661.31;5060777;28;19932;-58
2022/07/10 01:22:40;;;;;;;;;;;;;;;13.88;66.45;102657.28;5051892;28;19924;-58
2022/07/10 01:25:06;;;;;;;;;;;;;;;13.83;66.91;102651.50;5060974;28;19932;-58
2022/07/10 01:27:31;;;;;;;;;;;;;;;13.81;66.58;102648.16;5062032;28;20710;-58
2022/07/10 01:29:57;;;;;;;;;;;;;;;13.79;66.85;102644.75;5059977;28;19972;-58
2022/07/10 01:32:22;;;;;;;;;;;;;;;13.79;66.95;102648.28;5065882;28;19924;-57
2022/07/10 01:34:47;;;;;;;;;;;;;;;13.78;66.77;102653.75;5059316;28;20404;-57
2022/07/10 01:37:13;;;;;;;;;;;;;;;13.74;66.87;102653.19;5058404;28;20855;-57
2022/07/10 01:39:39;;;;;;;;;;;;;;;13.70;66.99;102649.09;5057727;28;20367;-59
2022/07/10 01:42:04;;;;;;;;;;;;;;;13.70;67.02;102646.44;5066128;28;19934;-58
2022/07/10 01:44:30;;;;;;;;;;;;;;;13.68;67.02;102648.41;5064821;28;19924;-57
2022/07/10 01:46:55;;;;;;;;;;;;;;;13.65;67.06;102648.66;5062047;28;19924;-58
2022/07/10 01:49:20;;;;;;;;;;;;;;;13.64;68.17;102649.63;5064699;28;19932;-58
2022/07/10 01:51:47;;;;;;;;;;;;;;;13.54;68.77;102653.16;5060935;28;19924;-58
2022/07/10 01:54:13;;;;;;;;;;;;;;;13.51;67.74;102652.56;5078172;28;20285;-59
2022/07/10 01:56:38;;;;;;;;;;;;;;;13.53;67.54;102650.59;5056737;28;19925;-57
2022/07/10 01:59:04;;;;;;;;;;;;;;;13.57;67.47;102652.84;5063541;28;20316;-58
2022/07/10 02:01:30;;;;;;;;;;;;;;;13.59;67.60;102653.56;5058843;28;19963;-57
2022/07/10 02:06:40;;;;;;;;;;;;;;;13.57;67.63;102642.19;5067953;28;19931;-57
2022/07/10 02:09:05;;;;;;;;;;;;;;;13.58;67.53;102649.22;5063039;28;19925;-58
2022/07/10 02:11:31;;;;;;;;;;;;;;;13.57;67.69;102652.84;5060985;28;19938;-57
2022/07/10 02:13:56;;;;;;;;;;;;;;;13.57;67.69;102646.69;5080616;28;19943;-57
2022/07/10 02:16:21;;;;;;;;;;;;;;;13.57;67.67;102639.53;5062368;28;20076;-58
2022/07/10 02:18:47;;;;;;;;;;;;;;;13.61;67.69;102641.94;5058874;28;20295;-57
2022/07/10 02:21:12;;;;;;;;;;;;;;;13.61;67.57;102647.25;5068706;28;20389;-58
2022/07/10 02:23:40;;;;;;;;;;;;;;;13.61;67.80;102653.41;5056859;28;19928;-58
2022/07/10 02:26:05;;;;;;;;;;;;;;;13.57;67.74;102647.53;5060864;28;20370;-58
2022/07/10 02:28:30;;;;;;;;;;;;;;;13.56;67.93;102653.84;5063418;28;20055;-58
2022/07/10 02:30:56;;;;;;;;;;;;;;;13.53;68.02;102651.44;5062762;28;19935;-59
2022/07/10 02:33:21;;;;;;;;;;;;;;;13.49;67.98;102644.72;5063709;28;19955;-57
2022/07/10 02:35:46;;;;;;;;;;;;;;;13.46;68.04;102636.97;5065905;28;20362;-58
2022/07/10 02:38:11;;;;;;;;;;;;;;;13.46;68.12;102644.97;5061817;28;19958;-58
2022/07/10 02:40:37;;;;;;;;;;;;;;;13.45;68.12;102637.94;5058084;28;19979;-58
2022/07/10 02:43:02;;;;;;;;;;;;;;;13.45;68.10;102645.91;5062610;28;20006;-58
2022/07/10 02:45:27;;;;;;;;;;;;;;;13.42;68.27;102640.88;5055746;28;20039;-58
2022/07/10 02:47:52;;;;;;;;;;;;;;;13.41;68.22;102641.84;5064218;28;19929;-58
2022/07/10 02:50:17;;;;;;;;;;;;;;;13.41;68.37;102636.50;5054833;28;19924;-58
2022/07/10 02:52:42;;;;;;;;;;;;;;;13.40;68.52;102641.00;5058919;28;19963;-58
2022/07/10 02:55:08;;;;;;;;;;;;;;;13.41;68.38;102641.84;5058992;28;20367;-58
2022/07/10 02:57:33;;;;;;;;;;;;;;;13.38;68.86;102637.63;5065411;28;19939;-57
2022/07/10 02:59:58;;;;;;;;;;;;;;;13.35;68.83;102640.56;5059773;28;19932;-58
2022/07/10 03:02:23;;;;;;;;;;;;;;;13.29;68.81;102638.44;5049072;28;19987;-58
2022/07/10 03:04:49;;;;;;;;;;;;;;;13.25;69.00;102637.88;5064472;28;19975;-58
2022/07/10 03:07:14;;;;;;;;;;;;;;;13.24;68.84;102630.00;5063668;28;19928;-57
2022/07/10 03:09:39;;;;;;;;;;;;;;;13.22;69.32;102632.81;5061523;28;20044;-58
2022/07/10 03:12:05;;;;;;;;;;;;;;;13.18;69.56;102631.41;5060458;28;19925;-58
2022/07/10 03:14:30;;;;;;;;;;;;;;;13.12;69.36;102637.28;5065765;28;20011;-57
2022/07/10 03:16:55;;;;;;;;;;;;;;;13.11;69.48;102632.91;5069819;28;19955;-58
2022/07/10 03:19:20;;;;;;;;;;;;;;;13.12;69.68;102632.78;5059907;28;19974;-57
2022/07/10 03:21:45;;;;;;;;;;;;;;;13.10;69.56;102637.41;5061856;28;20287;-58
2022/07/10 03:24:11;;;;;;;;;;;;;;;13.07;70.06;102631.50;5057161;28;20026;-58
2022/07/10 03:26:36;;;;;;;;;;;;;;;13.02;70.11;102631.88;5056166;28;19925;-57
2022/07/10 03:29:01;;;;;;;;;;;;;;;12.96;70.04;102627.94;5058264;28;20031;-58
2022/07/10 03:31:26;;;;;;;;;;;;;;;12.93;70.13;102622.03;5060099;28;19924;-57
2022/07/10 03:33:52;;;;;;;;;;;;;;;12.92;70.12;102623.84;5058398;28;19971;-59
2022/07/10 03:36:17;;;;;;;;;;;;;;;12.92;70.37;102621.19;5059652;28;20329;-57
2022/07/10 03:38:45;;;;;;;;;;;;;;;12.92;70.12;102618.53;5060364;28;19939;-58
2022/07/10 03:41:10;;;;;;;;;;;;;;;12.88;70.38;102615.28;5054395;28;19939;-58
2022/07/10 03:43:36;;;;;;;;;;;;;;;12.84;70.52;102616.56;5065609;28;20011;-58
2022/07/10 03:46:01;;;;;;;;;;;;;;;12.80;70.57;102611.59;5065026;28;19925;-58
2022/07/10 03:48:26;;;;;;;;;;;;;;;12.81;70.56;102608.81;5052723;28;20348;-58
2022/07/10 03:50:52;;;;;;;;;;;;;;;12.81;70.70;102610.63;5055992;28;20285;-57
2022/07/10 03:53:17;;;;;;;;;;;;;;;12.78;71.33;102615.25;5059655;28;19924;-58
2022/07/10 03:55:43;;;;;;;;;;;;;;;12.75;71.22;102615.53;5057272;28;19925;-58
2022/07/10 03:58:08;;;;;;;;;;;;;;;12.71;71.46;102614.09;5063219;28;20148;-58
2022/07/10 04:00:34;;;;;;;;;;;;;;;12.73;70.98;102616.63;5067403;28;19935;-58
2022/07/10 04:03:01;;;;;;;;;;;;;;;12.71;71.09;102619.41;5048130;28;20440;-58
2022/07/10 04:05:27;;;;;;;;;;;;;;;12.73;70.91;102617.47;5063171;28;19920;-58
2022/07/10 04:07:53;;;;;;;;;;;;;;;12.75;71.18;102623.50;5061794;28;20507;-58
2022/07/10 04:10:18;;;;;;;;;;;;;;;12.80;71.04;102622.25;5060218;28;20015;-57
2022/07/10 04:12:44;;;;;;;;;;;;;;;12.84;70.95;102616.56;5061822;28;20378;-57
2022/07/10 04:15:09;;;;;;;;;;;;;;;12.88;70.77;102619.78;5064010;28;19936;-59
2022/07/10 04:17:34;;;;;;;;;;;;;;;12.90;70.99;102615.16;5060730;28;19924;-58
2022/07/10 04:20:00;;;;;;;;;;;;;;;12.91;71.06;102620.38;5061259;28;19924;-58
2022/07/10 04:22:25;;;;;;;;;;;;;;;12.93;71.60;102622.88;5047475;28;19924;-58
2022/07/10 04:24:51;;;;;;;;;;;;;;;12.95;71.14;102626.25;5061672;28;19972;-58
2022/07/10 04:27:16;;;;;;;;;;;;;;;12.98;71.12;102614.50;5060338;28;19979;-58
2022/07/10 04:29:42;;;;;;;;;;;;;;;13.01;71.27;102609.75;5060587;28;19936;-58
2022/07/10 04:32:07;;;;;;;;;;;;;;;13.01;71.38;102609.75;5055665;28;20021;-58
2022/07/10 04:34:33;;;;;;;;;;;;;;;13.02;71.58;102614.09;5055395;28;20011;-57
2022/07/10 04:36:58;;;;;;;;;;;;;;;13.07;71.55;102612.84;5059796;28;20374;-58
2022/07/10 04:39:23;;;;;;;;;;;;;;;13.12;71.69;102621.28;5055435;28;19924;-58
2022/07/10 04:41:48;;;;;;;;;;;;;;;13.14;73.73;102620.19;5052720;28;20444;-58
2022/07/10 04:44:14;;;;;;;;;;;;;;;13.14;73.20;102614.00;5061954;28;19924;-58
2022/07/10 04:46:39;;;;;;;;;;;;;;;13.13;72.20;102612.31;5074922;28;20036;-58
2022/07/10 04:49:04;;;;;;;;;;;;;;;13.18;72.19;102610.09;5052715;28;20417;-58
2022/07/10 04:51:30;;;;;;;;;;;;;;;13.22;71.91;102611.50;5061290;28;19924;-58
2022/07/10 04:53:55;;;;;;;;;;;;;;;13.29;73.01;102617.13;5060541;28;20425;-57
2022/07/10 04:56:21;;;;;;;;;;;;;;;13.28;73.26;102626.94;5064132;28;20023;-57
2022/07/10 04:58:46;;;;;;;;;;;;;;;13.30;72.52;102625.00;5050633;28;19982;-57
2022/07/10 05:01:11;;;;;;;;;;;;;;;13.34;72.43;102625.56;5061436;28;20294;-57
2022/07/10 05:03:37;;;;;;;;;;;;;;;13.37;72.52;102624.44;5053182;28;19928;-58
2022/07/10 05:06:02;;;;;;;;;;;;;;;13.41;72.13;102615.19;5061292;28;19931;-57
2022/07/10 05:08:27;;;;;;;;;;;;;;;13.47;71.93;102608.50;5058742;28;20007;-58
2022/07/10 05:10:52;;;;;;;;;;;;;;;13.51;73.38;102621.41;5062784;28;19974;-57
2022/07/10 05:13:18;;;;;;;;;;;;;;;13.52;72.91;102622.28;5068318;28;19924;-58
2022/07/10 05:15:45;;;;;;;;;;;;;;;13.55;72.80;102616.66;5061236;28;20358;-57
2022/07/10 05:18:10;;;;;;;;;;;;;;;13.56;72.36;102624.53;5057966;28;20325;-59
2022/07/10 05:20:37;;;;;;;;;;;;;;;13.61;72.31;102625.94;5056036;28;19924;-57
2022/07/10 05:23:03;;;;;;;;;;;;;;;13.61;72.86;102625.94;5051732;28;19998;-57
2022/07/10 05:25:30;;;;;;;;;;;;;;;13.61;72.46;102625.94;5057141;28;19924;-57
2022/07/10 05:27:55;;;;;;;;;;;;;;;13.61;72.93;102621.44;5056810;28;19982;-57
2022/07/10 05:30:20;;;;;;;;;;;;;;;13.55;72.84;102616.66;5056270;28;19987;-57
2022/07/10 05:32:46;;;;;;;;;;;;;;;13.54;72.85;102618.50;5058094;28;19932;-58
2022/07/10 05:35:11;;;;;;;;;;;;;;;13.58;72.57;102617.22;5061685;28;19924;-58
2022/07/10 05:37:36;;;;;;;;;;;;;;;13.62;72.92;102619.63;5066628;28;19935;-58
2022/07/10 05:40:02;;;;;;;;;;;;;;;13.65;72.83;102617.53;5060295;28;19924;-57
2022/07/10 05:42:27;;;;;;;;;;;;;;;13.70;73.96;102619.75;5062328;28;19928;-57
2022/07/10 05:44:52;;;;;;;;;;;;;;;13.73;73.14;102627.50;5052582;28;19925;-56
2022/07/10 05:47:17;;;;;;;;;;;;;;;13.81;73.53;102616.16;5060253;28;20120;-57
2022/07/10 05:49:43;;;;;;;;;;;;;;;13.88;73.57;102622.59;5063877;28;19932;-58
2022/07/10 05:52:08;;;;;;;;;;;;;;;13.95;74.08;102622.88;5068999;28;20382;-59
2022/07/10 05:54:33;;;;;;;;;;;;;;;14.05;73.08;102613.03;5058566;28;20378;-58
2022/07/10 05:56:58;;;;;;;;;;;;;;;14.15;73.84;102620.22;5060878;28;19930;-58
2022/07/10 05:59:23;;;;;;;;;;;;;;;14.30;73.36;102624.13;5054795;28;20291;-58
2022/07/10 06:01:48;;;;;;;;;;;;;;;14.43;73.91;102622.97;5060853;28;19966;-58
2022/07/10 06:04:14;;;;;;;;;;;;;;;14.52;72.94;102624.78;5052517;28;20753;-59
2022/07/10 06:06:39;;;;;;;;;;;;;;;14.63;73.07;102621.97;5058816;28;19966;-57
2022/07/10 06:09:04;;;;;;;;;;;;;;;14.75;73.28;102619.16;5053190;28;20280;-57
2022/07/10 06:11:29;;;;;;;;;;;;;;;14.85;72.98;102619.94;5058020;28;20433;-57
2022/07/10 06:13:55;;;;;;;;;;;;;;;14.95;73.19;102614.56;5062974;28;20348;-58
2022/07/10 06:16:21;;;;;;;;;;;;;;;15.06;72.69;102614.38;5073398;28;20359;-57
2022/07/10 06:18:46;;;;;;;;;;;;;;;15.17;72.44;102609.81;5065574;28;19928;-57
2022/07/10 06:21:11;;;;;;;;;;;;;;;15.25;71.80;102614.44;5064229;28;19939;-58
2022/07/10 06:23:36;;;;;;;;;;;;;;;15.37;71.77;102615.91;5055720;28;19925;-59
2022/07/10 06:26:02;;;;;;;;;;;;;;;15.56;70.89;102619.44;5065190;28;19931;-57
2022/07/10 06:28:27;;;;;;;;;;;;;;;15.59;71.45;102619.13;5064627;28;19977;-57
2022/07/10 06:30:52;;;;;;;;;;;;;;;15.66;71.11;102617.56;5061989;28;19981;-58
2022/07/10 06:33:17;;;;;;;;;;;;;;;15.85;70.55;102615.72;5062771;28;19925;-57
2022/07/10 06:35:43;;;;;;;;;;;;;;;15.88;71.10;102615.41;5061394;28;19974;-57
2022/07/10 06:38:08;;;;;;;;;;;;;;;15.92;71.12;102616.81;5060085;28;19932;-57
2022/07/10 06:40:36;;;;;;;;;;;;;;;15.95;70.81;102616.53;5057424;28;19925;-57
2022/07/10 06:43:02;;;;;;;;;;;;;;;16.13;70.57;102602.25;5061483;28;20375;-58
2022/07/10 06:45:27;;;;;;;;;;;;;;;16.13;70.13;102602.25;5066862;28;19920;-57
2022/07/10 06:47:55;;;;;;;;;;;;;;;16.34;69.38;102615.28;5047476;28;19936;-58
2022/07/10 06:50:21;;;;;;;;;;;;;;;16.25;69.65;102606.38;5048101;28;20291;-57
2022/07/10 06:52:46;;;;;;;;;;;;;;;16.27;68.94;102611.56;5055330;28;19924;-57
2022/07/10 06:55:12;;;;;;;;;;;;;;;16.12;69.24;102612.13;5078929;28;20592;-58
2022/07/10 06:57:38;;;;;;;;;;;;;;;16.17;69.77;102613.53;5052703;28;19928;-57
2022/07/10 07:00:03;;;;;;;;;;;;;;;16.26;69.92;102617.94;5057804;28;19947;-57
2022/07/10 07:02:29;;;;;;;;;;;;;;;16.29;69.25;102609.59;5051630;28;20359;-57
2022/07/10 07:04:54;;;;;;;;;;;;;;;16.31;68.90;102615.63;5053188;28;20372;-57
2022/07/10 07:07:20;;;;;;;;;;;;;;;16.32;68.98;102611.13;5053000;28;19928;-58
2022/07/10 07:09:49;;;;;;;;;;;;;;;16.37;68.71;102608.78;5054618;28;19924;-57
2022/07/10 07:12:14;;;;;;;;;;;;;;;16.42;68.80;102606.50;5054927;28;19931;-58
2022/07/10 07:14:39;;;;;;;;;;;;;;;16.52;68.84;102612.59;5060231;28;20382;-57
2022/07/10 07:17:09;;;;;;;;;;;;;;;16.58;68.91;102621.00;5056656;28;20283;-57
2022/07/10 07:25:23;;;;;;;;;;;;;;;16.66;68.50;102623.72;5011843;28;19929;-60
2022/07/10 07:27:48;;;;;;;;;;;;;;;16.64;68.93;102625.72;5045846;28;19989;-58
2022/07/10 07:30:15;;;;;;;;;;;;;;;16.57;69.35;102622.81;5054446;28;19924;-59
2022/07/10 07:32:40;;;;;;;;;;;;;;;16.55;68.54;102627.50;5054746;28;19936;-59
2022/07/10 07:35:05;;;;;;;;;;;;;;;16.54;68.67;102633.84;5059504;28;19924;-59
2022/07/10 07:37:50;;;;;;;;;;;;;;;16.42;69.08;102630.59;5062375;28;19935;-58
2022/07/10 07:40:22;;;;;;;;;;;;;;;16.44;69.48;102631.28;5053653;28;19994;-57
2022/07/10 07:42:47;;;;;;;;;;;;;;;16.49;69.22;102623.59;5055224;28;19954;-59
2022/07/10 07:45:12;;;;;;;;;;;;;;;16.38;69.26;102623.88;5064234;28;19921;-57
2022/07/10 07:47:48;;;;;;;;;;;;;;;16.37;68.91;102624.84;5059123;28;20615;-57
2022/07/10 07:50:14;;;;;;;;;;;;;;;16.40;69.23;102630.72;5054299;28;19924;-57
2022/07/10 07:52:39;;;;;;;;;;;;;;;16.54;68.77;102626.66;5049545;28;20325;-58
2022/07/10 07:55:05;;;;;;;;;;;;;;;16.61;69.41;102623.34;5052901;28;19925;-58
2022/07/10 07:57:30;;;;;;;;;;;;;;;16.73;69.14;102624.75;5057915;28;20270;-58
2022/07/10 07:59:55;;;;;;;;;;;;;;;16.78;69.74;102617.06;5047907;28;19924;-58
2022/07/10 08:02:21;;;;;;;;;;;;;;;16.84;69.23;102623.66;5059318;28;20397;-58
2022/07/10 08:04:46;;;;;;;;;;;;;;;16.86;68.89;102624.31;5053337;28;19932;-58
2022/07/10 08:07:11;;;;;;;;;;;;;;;16.86;68.75;102631.50;5061197;28;20456;-57
2022/07/10 08:09:37;;;;;;;;;;;;;;;16.78;68.79;102633.16;5063065;28;19924;-57
2022/07/10 08:12:02;;;;;;;;;;;;;;;16.83;68.79;102623.81;5067966;28;19936;-57
2022/07/10 08:14:27;;;;;;;;;;;;;;;16.89;68.35;102624.03;5044744;28;19929;-56
2022/07/10 08:16:52;;;;;;;;;;;;;;;16.73;68.66;102619.38;5060855;28;19925;-58
2022/07/10 08:19:17;;;;;;;;;;;;;;;16.79;68.74;102616.06;5061447;28;19935;-57
2022/07/10 08:21:43;;;;;;;;;;;;;;;16.86;68.96;102618.09;5057495;28;20379;-59
2022/07/10 08:24:08;;;;;;;;;;;;;;;16.92;68.33;102617.47;5061299;28;20008;-57
2022/07/10 08:26:33;;;;;;;;;;;;;;;16.98;68.71;102616.88;5055644;28;20318;-57
2022/07/10 08:28:59;;;;;;;;;;;;;;;17.07;68.44;102621.28;5047851;28;19973;-57
2022/07/10 08:31:26;;;;;;;;;;;;;;;17.13;68.20;102625.16;5083395;28;20409;-59
2022/07/10 08:33:52;;;;;;;;;;;;;;;17.18;68.27;102622.81;5054211;28;20827;-58
2022/07/10 08:36:17;;;;;;;;;;;;;;;17.24;67.56;102615.13;5054311;28;20417;-58
2022/07/10 08:38:42;;;;;;;;;;;;;;;17.16;67.96;102618.59;5064368;28;20031;-58
2022/07/10 08:41:09;;;;;;;;;;;;;;;17.08;67.90;102616.75;5074169;28;19920;-59
2022/07/10 08:43:34;;;;;;;;;;;;;;;17.01;68.18;102621.88;5060979;28;20016;-58
2022/07/10 08:46:01;;;;;;;;;;;;;;;17.03;68.00;102622.59;5062513;28;20031;-58
2022/07/10 08:48:28;;;;;;;;;;;;;;;16.92;68.19;102618.31;5060144;28;19928;-58
2022/07/10 08:50:54;;;;;;;;;;;;;;;16.88;68.27;102622.31;5059261;28;19924;-59
2022/07/10 08:53:38;;;;;;;;;;;;;;;16.81;68.22;102619.44;5069571;28;19929;-59
2022/07/10 08:56:04;;;;;;;;;;;;;;;16.78;68.23;102622.44;5055473;28;20011;-59
2022/07/10 08:58:32;;;;;;;;;;;;;;;16.79;68.76;102624.09;5059918;28;20019;-59
2022/07/10 09:00:57;;;;;;;;;;;;;;;16.80;69.12;102623.13;5058582;28;19927;-58
2022/07/10 09:03:23;;;;;;;;;;;;;;;16.97;68.08;102625.88;5056029;28;19948;-58
2022/07/10 09:05:48;;;;;;;;;;;;;;;16.90;68.55;102627.53;5062547;28;19931;-58
2022/07/10 09:08:23;;;;;;;;;;;;;;;16.94;68.38;102621.66;5068558;28;19982;-58
2022/07/10 09:10:48;;;;;;;;;;;;;;;17.02;67.88;102628.94;5045955;28;19932;-58
2022/07/10 09:13:13;;;;;;;;;;;;;;;17.01;68.42;102616.53;5054083;28;20279;-60
2022/07/10 09:15:38;;;;;;;;;;;;;;;16.97;68.81;102619.69;5062682;28;20393;-59
2022/07/10 09:18:07;;;;;;;;;;;;;;;16.99;68.63;102617.69;5072452;28;19925;-58
2022/07/10 09:20:33;;;;;;;;;;;;;;;16.98;68.47;102611.50;5063225;28;19970;-59
2022/07/10 09:23:10;;;;;;;;;;;;;;;17.08;68.85;102606.03;5051431;28;19924;-59
2022/07/10 09:25:35;;;;;;;;;;;;;;;17.14;68.49;102608.06;5071252;28;20404;-59
2022/07/10 09:28:05;;;;;;;;;;;;;;;17.22;68.18;102609.91;5067459;28;19927;-59
2022/07/10 09:30:34;;;;;;;;;;;;;;;17.26;68.47;102597.88;5066354;28;19924;-59
2022/07/10 09:33:19;;;;;;;;;;;;;;;17.25;68.34;102596.19;5056408;28;19925;-60
2022/07/10 09:38:57;;;;;;;;;;;;;;;17.26;68.43;102602.41;5015286;28;20453;-58
2022/07/10 09:41:22;;;;;;;;;;;;;;;17.34;68.12;102599.75;5054238;28;19928;-59
2022/07/10 09:43:50;;;;;;;;;;;;;;;17.40;67.90;102598.25;5060618;28;19931;-61
2022/07/10 09:46:16;;;;;;;;;;;;;;;17.37;68.47;102595.91;5052433;28;19921;-60
2022/07/10 09:48:42;;;;;;;;;;;;;;;17.33;67.96;102603.44;5052115;28;19978;-60
2022/07/10 09:51:11;;;;;;;;;;;;;;;17.30;68.15;102599.22;5060403;28;19924;-60
2022/07/10 09:53:43;;;;;;;;;;;;;;;17.32;68.78;102597.22;5040589;28;20283;-58
2022/07/10 09:56:09;;;;;;;;;;;;;;;17.41;68.31;102594.56;5062175;28;19975;-60
2022/07/10 09:58:37;;;;;;;;;;;;;;;17.62;67.68;102580.69;5056473;28;19916;-59
2022/07/10 10:01:06;;;;;;;;;;;;;;;17.64;67.40;102578.69;5059543;28;19924;-59
2022/07/10 10:03:37;;;;;;;;;;;;;;;17.72;67.23;102585.91;5055380;28;19957;-59
2022/07/10 10:06:15;;;;;;;;;;;;;;;17.76;66.94;102587.22;5059079;28;19931;-61
2022/07/10 10:08:57;;;;;;;;;;;;;;;17.74;66.87;102583.88;5059001;28;19970;-60
2022/07/10 10:11:25;;;;;;;;;;;;;;;17.69;67.07;102587.06;5051318;28;19925;-59
2022/07/10 10:13:51;;;;;;;;;;;;;;;17.73;67.24;102585.72;5060924;28;20373;-59
2022/07/10 10:16:18;;;;;;;;;;;;;;;17.92;67.15;102582.88;5057673;28;20023;-59
2022/07/10 10:21:28;;;;;;;;;;;;;;;18.22;66.73;102575.19;5054798;28;19970;-59
2022/07/10 10:23:54;;;;;;;;;;;;;;;18.27;66.77;102588.94;5058241;28;19929;-60
2022/07/10 10:26:20;;;;;;;;;;;;;;;18.23;66.44;102576.84;5055805;28;20349;-59
2022/07/10 10:28:45;;;;;;;;;;;;;;;18.21;66.39;102576.19;5058682;28;19950;-59
2022/07/10 10:31:11;;;;;;;;;;;;;;;18.15;66.21;102567.81;5062526;28;19925;-59
2022/07/10 10:33:40;;;;;;;;;;;;;;;18.20;66.08;102571.84;5056969;28;20279;-59
2022/07/10 10:36:05;;;;;;;;;;;;;;;18.29;66.10;102570.78;5058046;28;19924;-59
2022/07/10 10:38:55;;;;;;;;;;;;;;;18.36;66.05;102571.78;5070882;28;19932;-59
2022/07/10 10:41:27;;;;;;;;;;;;;;;18.53;65.89;102571.75;5057950;28;19936;-59
2022/07/10 10:44:15;;;;;;;;;;;;;;;18.76;64.23;102576.38;5049780;28;19971;-60
2022/07/10 10:46:50;;;;;;;;;;;;;;;18.74;65.15;102573.84;5059323;28;19924;-58
2022/07/10 10:49:16;;;;;;;;;;;;;;;18.89;63.51;102565.91;5058511;28;19924;-59
2022/07/10 10:52:02;;;;;;;;;;;;;;;18.94;64.75;102566.22;5051690;28;20372;-59
2022/07/10 10:54:29;;;;;;;;;;;;;;;19.03;64.57;102563.50;5056450;28;19925;-59
2022/07/10 10:57:14;;;;;;;;;;;;;;;19.07;64.44;102562.16;5041998;28;19967;-59
2022/07/10 10:59:45;;;;;;;;;;;;;;;19.02;64.06;102561.81;5057537;28;19924;-59
2022/07/10 11:02:20;;;;;;;;;;;;;;;19.02;64.04;102564.50;5051193;28;19924;-59
2022/07/10 11:04:45;;;;;;;;;;;;;;;19.06;64.34;102563.16;5057404;28;19924;-59
2022/07/10 11:07:10;;;;;;;;;;;;;;;19.10;64.53;102564.50;5052992;28;19966;-58
2022/07/10 11:09:36;;;;;;;;;;;;;;;19.13;64.38;102560.63;5055228;28;20278;-59
2022/07/10 11:12:05;;;;;;;;;;;;;;;19.07;64.94;102560.31;5053007;28;19929;-60
2022/07/10 11:14:32;;;;;;;;;;;;;;;19.13;64.38;102553.38;5053776;28;19947;-59
2022/07/10 11:16:57;;;;;;;;;;;;;;;19.11;64.01;102554.56;5051392;28;19927;-60
2022/07/10 11:19:24;;;;;;;;;;;;;;;19.08;64.13;102559.28;5050711;28;19932;-59
2022/07/10 11:21:54;;;;;;;;;;;;;;;19.15;64.10;102551.34;5049318;28;19931;-60
2022/07/10 11:24:33;;;;;;;;;;;;;;;19.26;64.18;102544.75;5048524;28;20008;-59
2022/07/10 11:27:02;;;;;;;;;;;;;;;19.27;63.77;102545.56;5059487;28;19983;-58
2022/07/10 11:29:35;;;;;;;;;;;;;;;19.27;63.41;102546.41;5050018;28;20319;-59
2022/07/10 11:32:02;;;;;;;;;;;;;;;19.27;63.50;102550.94;5051062;28;20023;-59
2022/07/10 11:34:34;;;;;;;;;;;;;;;19.34;63.96;102541.16;5064704;28;19925;-58
2022/07/10 11:36:59;;;;;;;;;;;;;;;19.44;63.64;102546.31;5055499;28;19932;-58
2022/07/10 11:39:24;;;;;;;;;;;;;;;19.54;63.43;102541.50;5049631;28;19998;-61
2022/07/10 11:41:50;;;;;;;;;;;;;;;19.54;63.10;102536.13;5030323;28;19940;-59
2022/07/10 11:44:16;;;;;;;;;;;;;;;19.59;63.50;102539.09;5049066;28;19973;-60
2022/07/10 11:46:44;;;;;;;;;;;;;;;19.60;63.72;102539.97;5052862;28;20034;-59
2022/07/10 11:49:10;;;;;;;;;;;;;;;19.66;62.92;102533.84;5055058;28;19946;-59
2022/07/10 11:51:36;;;;;;;;;;;;;;;19.55;62.76;102532.44;5056219;28;20367;-62
2022/07/10 11:54:12;;;;;;;;;;;;;;;19.59;62.23;102528.34;5055508;28;20405;-60
2022/07/10 11:56:40;;;;;;;;;;;;;;;19.55;63.19;102520.81;5055874;28;20368;-60
2022/07/10 11:59:06;;;;;;;;;;;;;;;19.61;63.16;102523.63;5054582;28;20311;-59
2022/07/10 12:01:33;;;;;;;;;;;;;;;19.78;62.92;102525.34;5057779;28;19928;-61
2022/07/10 12:03:58;;;;;;;;;;;;;;;19.88;61.79;102520.53;5039509;28;19950;-61
2022/07/10 12:06:24;;;;;;;;;;;;;;;19.88;62.68;102521.38;5054311;28;19924;-60
2022/07/10 12:08:49;;;;;;;;;;;;;;;19.98;62.56;102525.69;5055252;28;19925;-60
2022/07/10 12:11:16;;;;;;;;;;;;;;;20.02;61.54;102517.06;5053488;28;20442;-59
2022/07/10 12:13:41;;;;;;;;;;;;;;;20.04;62.19;102530.34;5058094;28;20007;-60
2022/07/10 12:16:07;;;;;;;;;;;;;;;20.10;61.22;102534.16;5054937;28;20011;-59
2022/07/10 12:18:33;;;;;;;;;;;;;;;19.91;62.14;102536.31;5057822;28;19929;-59
2022/07/10 12:20:59;;;;;;;;;;;;;;;19.87;62.66;102529.63;5056845;28;19925;-59
2022/07/10 12:23:24;;;;;;;;;;;;;;;19.90;62.15;102534.66;5071102;28;20453;-61
2022/07/10 12:25:50;;;;;;;;;;;;;;;19.87;62.33;102535.84;5047992;28;19967;-60
2022/07/10 12:28:15;;;;;;;;;;;;;;;19.92;62.57;102527.22;5055155;28;20381;-59
2022/07/10 12:30:41;;;;;;;;;;;;;;;20.00;62.14;102535.28;5053485;28;19924;-59
2022/07/10 12:33:18;;;;;;;;;;;;;;;20.09;61.97;102532.47;5050443;28;20523;-59
2022/07/10 12:35:48;;;;;;;;;;;;;;;20.29;61.07;102528.22;5047557;28;19935;-59
2022/07/10 12:38:19;;;;;;;;;;;;;;;20.10;61.18;102539.53;5056687;28;20341;-59
2022/07/10 12:40:44;;;;;;;;;;;;;;;20.09;61.40;102527.09;5054180;28;19952;-59
2022/07/10 12:43:11;;;;;;;;;;;;;;;20.20;61.71;102537.41;5052474;28;20286;-59
2022/07/10 12:45:36;;;;;;;;;;;;;;;20.42;60.88;102537.50;5053784;28;19931;-59